CMA CGM Columba — 2DBC9 — position and weather

sailwx.info

Track history (hours):
 
Tides and Currents Weather Stations Pressure Air Temp Water Temp Dewpoint Dewpoint Depression Visibility Wind Speed Wind Dir Waves Ship Positions

CMA CGM Columba

Last reported at 2014-Aug-18 16:28 UTC. Time now 2014-Aug-29 14:24 UTC.
Position N 33°55' E 035°32'.
Warning: this ship's position is 10 days out of date.

Length 363 m; draft 14.3 m.

Type: Ship (hazmat cat A). MMSI: 235077448.

Date/timePositionNaut miles runAvg speedWind from/ knotsBaromVisibWave heightAir tempDewpointWater temp
2014-Aug-18 16:28N 33°55' E 035°32'2 1.7
2014-Aug-18 15:33N 33°56' E 035°32'1211.9
2014-Aug-18 14:32N 33°54' E 035°17'2019.5
2014-Aug-18 13:29N 33°55' E 034°53'1920.5
2014-Aug-18 12:33N 33°56' E 034°30'2221.5
2014-Aug-18 11:31N 33°58' E 034°03'2121.6
2014-Aug-18 10:33N 33°60' E 033°38'2321.5
2014-Aug-18 09:29N 34°01' E 033°10'7321.3
2014-Aug-18 06:04N 34°07' E 031°43'1121.2
2014-Aug-18 05:33N 34°08' E 031°30'2121.2
2014-Aug-18 04:33N 34°10' E 031°04'2121.3
2014-Aug-18 03:33N 34°11' E 030°38'4821.4
2014-Aug-18 01:18N 34°15' E 029°40'1721.3
2014-Aug-18 00:30N 34°16' E 029°20'15521.4
2014-Aug-17 17:14N 34°29' E 026°12'17021.2
2014-Aug-17 09:12N 34°50' E 022°47'1320.7
2014-Aug-17 08:33N 34°53' E 022°31'34821.1
2014-Aug-16 16:06N 36°09' E 015°34'1221.5
2014-Aug-16 15:33N 36°11' E 015°19'2121.4
2014-Aug-16 14:33N 36°16' E 014°54'2121.2
2014-Aug-16 13:33N 36°21' E 014°28'2221.6
2014-Aug-16 12:33N 36°29' E 014°03'2221.6
2014-Aug-16 11:33N 36°36' E 013°38'2221.7
2014-Aug-16 10:33N 36°44' E 013°13'2121.4
2014-Aug-16 09:33N 36°52' E 012°48'2221.5
2014-Aug-16 08:33N 36°60' E 012°23'3221.4
2014-Aug-16 07:04N 37°10' E 011°45'1121.2
2014-Aug-16 06:33N 37°14' E 011°32'8521.2
2014-Aug-16 02:33N 37°31' E 009°48'86021.0
2014-Aug-14 09:33N 36°18' W 008°04'2121.4
2014-Aug-14 08:33N 36°25' W 008°29'2121.3
2014-Aug-14 07:33N 36°29' W 008°55'4519.9
2014-Aug-14 05:19N 36°58' W 009°37'87719.5
2014-Aug-12 08:26N 50°17' W 001°18'1516.8
2014-Aug-12 07:33N 50°21' W 000°56'1918.6
2014-Aug-12 06:33N 50°27' W 000°28'2020.4
2014-Aug-12 05:33N 50°32' E 000°03'2121.2
2014-Aug-12 04:33N 50°38' E 000°35'2020.3
2014-Aug-12 03:33N 50°49' E 001°02'1918.6
2014-Aug-12 02:33N 51°02' E 001°24'1616.4
2014-Aug-12 01:33N 51°12' E 001°43'1616.3
2014-Aug-12 00:34N 51°25' E 002°00'1616.0
2014-Aug-11 23:34N 51°22' E 002°26'1212.3
2014-Aug-11 22:33N 51°23' E 002°45'1312.6
2014-Aug-11 21:33N 51°24' E 003°05'6 5.6
2014-Aug-11 20:33N 51°20' E 003°12'0 0.0
2014-Aug-11 19:33N 51°20' E 003°12'0 0.0
2014-Aug-11 18:33N 51°20' E 003°12'0 0.0
2014-Aug-11 17:33N 51°20' E 003°12'0 0.0
2014-Aug-11 16:33N 51°20' E 003°12'0 0.0
2014-Aug-11 15:30N 51°20' E 003°12'0 0.0
2014-Aug-11 14:33N 51°20' E 003°12'0 0.0
2014-Aug-11 12:09N 51°20' E 003°12'0 0.0
2014-Aug-11 11:27N 51°20' E 003°12'1 1.0
2014-Aug-11 10:34N 51°21' E 003°12'1212.1
2014-Aug-11 09:33N 51°25' E 002°54'8 8.0
2014-Aug-11 08:33N 51°25' E 002°41'1010.4
2014-Aug-11 07:33N 51°35' E 002°48'1111.0
2014-Aug-11 06:33N 51°44' E 002°58'1313.1
2014-Aug-11 05:33N 51°52' E 003°14'1413.9
2014-Aug-11 04:33N 52°03' E 003°29'1515.0
2014-Aug-11 03:33N 52°03' E 003°53'9 8.7
2014-Aug-11 02:33N 51°59' E 004°05'2 1.6
2014-Aug-11 01:33N 51°57' E 004°04'0 0.0
2014-Aug-11 00:33N 51°57' E 004°04'0 0.0
2014-Aug-10 23:33N 51°57' E 004°04'0 0.0
2014-Aug-10 22:33N 51°57' E 004°04'0 0.0
2014-Aug-10 21:33N 51°57' E 004°04'0 0.0
2014-Aug-10 20:30N 51°57' E 004°04'0 0.0
2014-Aug-10 19:33N 51°57' E 004°04'0 0.0
2014-Aug-10 18:33N 51°57' E 004°04'0 0.0
2014-Aug-10 17:33N 51°57' E 004°04'0 0.0
2014-Aug-10 16:33N 51°57' E 004°04'0 0.0
2014-Aug-10 15:33N 51°57' E 004°04'0 0.0
2014-Aug-10 14:33N 51°57' E 004°04'0 0.0
2014-Aug-10 13:33N 51°57' E 004°04'0 0.0
2014-Aug-10 12:33N 51°57' E 004°04'0 0.0
2014-Aug-10 11:33N 51°57' E 004°04'0 0.0
2014-Aug-10 10:33N 51°57' E 004°04'0 0.0
2014-Aug-10 09:33N 51°57' E 004°04'0 0.0
2014-Aug-10 08:33N 51°57' E 004°04'0 0.0
2014-Aug-10 07:30N 51°57' E 004°04'0 0.0
2014-Aug-10 06:33N 51°57' E 004°04'0 0.0
2014-Aug-10 05:27N 51°57' E 004°04'0 0.0
2014-Aug-10 04:33N 51°57' E 004°04'0 0.0
2014-Aug-10 03:33N 51°57' E 004°04'0 0.0
2014-Aug-10 02:33N 51°57' E 004°04'0 0.0
2014-Aug-10 01:33N 51°57' E 004°04'0 0.0
2014-Aug-10 00:33N 51°57' E 004°04'0 0.0
2014-Aug-09 23:33N 51°57' E 004°04'0 0.0
2014-Aug-09 22:33N 51°57' E 004°04'0 0.0
2014-Aug-09 21:30N 51°57' E 004°04'0 0.0
2014-Aug-09 20:33N 51°57' E 004°04'1 1.2
2014-Aug-09 19:33N 51°58' E 004°05'8 8.4
2014-Aug-09 18:33N 52°00' E 003°52'8 8.2
2014-Aug-09 17:33N 52°03' E 003°40'4 4.0
2014-Aug-09 16:33N 52°07' E 003°36'10 9.9
2014-Aug-09 15:33N 51°57' E 003°37'4413.0
2014-Aug-09 12:09N 51°41' E 002°30'1322.2
2014-Aug-09 11:33N 51°31' E 002°16'2120.9
2014-Aug-09 10:34N 51°12' E 002°01'2322.6
2014-Aug-09 09:34N 50°58' E 001°33'2521.4
2014-Aug-09 08:22N 50°36' E 001°12'1821.6
2014-Aug-09 07:33N 50°28' E 000°47'2322.6
2014-Aug-09 06:33N 50°23' E 000°13'2221.7
2014-Aug-09 05:33N 50°27' W 000°21'2221.6
2014-Aug-09 04:34N 50°35' W 000°52'1212.1
2014-Aug-09 03:34N 50°44' W 001°05'1111.2
2014-Aug-09 02:33N 50°51' W 001°20'6 5.8
2014-Aug-09 01:33N 50°54' W 001°27'1 0.7
2014-Aug-09 00:32N 50°54' W 001°28'0 0.0
2014-Aug-08 23:32N 50°54' W 001°28'0 0.0
2014-Aug-08 22:32N 50°54' W 001°28'0 0.0
2014-Aug-08 21:32N 50°54' W 001°28'0 0.0
2014-Aug-08 20:29N 50°54' W 001°28'0 0.0
2014-Aug-08 19:32N 50°54' W 001°28'0 0.0
2014-Aug-08 18:32N 50°54' W 001°28'0 0.0
2014-Aug-08 17:32N 50°54' W 001°28'0 0.0
2014-Aug-08 16:32N 50°54' W 001°28'  
Track history (hours):
 
Tides and Currents Weather Stations Pressure Air Temp Water Temp Dewpoint Dewpoint Depression Visibility Wind Speed Wind Dir Waves Ship Positions

CMA CGM Columba

Last reported at 2014-Aug-18 16:28 UTC. Time now 2014-Aug-29 14:24 UTC.
Position N 33°55' E 035°32'.
Warning: this ship's position is 10 days out of date.

Length 363 m; draft 14.3 m.

Type: Ship (hazmat cat A). MMSI: 235077448.

Date/timePositionNaut miles runAvg speedWind from/ knotsBaromVisibWave heightAir tempDewpointWater temp
2014-Aug-18 16:28N 33°55' E 035°32'2 1.7
2014-Aug-18 15:33N 33°56' E 035°32'1211.9
2014-Aug-18 14:32N 33°54' E 035°17'2019.5
2014-Aug-18 13:29N 33°55' E 034°53'1920.5
2014-Aug-18 12:33N 33°56' E 034°30'2221.5
2014-Aug-18 11:31N 33°58' E 034°03'2121.6
2014-Aug-18 10:33N 33°60' E 033°38'2321.5
2014-Aug-18 09:29N 34°01' E 033°10'7321.3
2014-Aug-18 06:04N 34°07' E 031°43'1121.2
2014-Aug-18 05:33N 34°08' E 031°30'2121.2
2014-Aug-18 04:33N 34°10' E 031°04'2121.3
2014-Aug-18 03:33N 34°11' E 030°38'4821.4
2014-Aug-18 01:18N 34°15' E 029°40'1721.3
2014-Aug-18 00:30N 34°16' E 029°20'15521.4
2014-Aug-17 17:14N 34°29' E 026°12'17021.2
2014-Aug-17 09:12N 34°50' E 022°47'1320.7
2014-Aug-17 08:33N 34°53' E 022°31'34821.1
2014-Aug-16 16:06N 36°09' E 015°34'1221.5
2014-Aug-16 15:33N 36°11' E 015°19'2121.4
2014-Aug-16 14:33N 36°16' E 014°54'2121.2
2014-Aug-16 13:33N 36°21' E 014°28'2221.6
2014-Aug-16 12:33N 36°29' E 014°03'2221.6
2014-Aug-16 11:33N 36°36' E 013°38'2221.7
2014-Aug-16 10:33N 36°44' E 013°13'2121.4
2014-Aug-16 09:33N 36°52' E 012°48'2221.5
2014-Aug-16 08:33N 36°60' E 012°23'3221.4
2014-Aug-16 07:04N 37°10' E 011°45'1121.2
2014-Aug-16 06:33N 37°14' E 011°32'8521.2
2014-Aug-16 02:33N 37°31' E 009°48'86021.0
2014-Aug-14 09:33N 36°18' W 008°04'2121.4
2014-Aug-14 08:33N 36°25' W 008°29'2121.3
2014-Aug-14 07:33N 36°29' W 008°55'4519.9
2014-Aug-14 05:19N 36°58' W 009°37'87719.5
2014-Aug-12 08:26N 50°17' W 001°18'1516.8
2014-Aug-12 07:33N 50°21' W 000°56'1918.6
2014-Aug-12 06:33N 50°27' W 000°28'2020.4
2014-Aug-12 05:33N 50°32' E 000°03'2121.2
2014-Aug-12 04:33N 50°38' E 000°35'2020.3
2014-Aug-12 03:33N 50°49' E 001°02'1918.6
2014-Aug-12 02:33N 51°02' E 001°24'1616.4
2014-Aug-12 01:33N 51°12' E 001°43'1616.3
2014-Aug-12 00:34N 51°25' E 002°00'1616.0
2014-Aug-11 23:34N 51°22' E 002°26'1212.3
2014-Aug-11 22:33N 51°23' E 002°45'1312.6
2014-Aug-11 21:33N 51°24' E 003°05'6 5.6
2014-Aug-11 20:33N 51°20' E 003°12'0 0.0
2014-Aug-11 19:33N 51°20' E 003°12'0 0.0
2014-Aug-11 18:33N 51°20' E 003°12'0 0.0
2014-Aug-11 17:33N 51°20' E 003°12'0 0.0
2014-Aug-11 16:33N 51°20' E 003°12'0 0.0
2014-Aug-11 15:30N 51°20' E 003°12'0 0.0
2014-Aug-11 14:33N 51°20' E 003°12'0 0.0
2014-Aug-11 12:09N 51°20' E 003°12'0 0.0
2014-Aug-11 11:27N 51°20' E 003°12'1 1.0
2014-Aug-11 10:34N 51°21' E 003°12'1212.1
2014-Aug-11 09:33N 51°25' E 002°54'8 8.0
2014-Aug-11 08:33N 51°25' E 002°41'1010.4
2014-Aug-11 07:33N 51°35' E 002°48'1111.0
2014-Aug-11 06:33N 51°44' E 002°58'1313.1
2014-Aug-11 05:33N 51°52' E 003°14'1413.9
2014-Aug-11 04:33N 52°03' E 003°29'1515.0
2014-Aug-11 03:33N 52°03' E 003°53'9 8.7
2014-Aug-11 02:33N 51°59' E 004°05'2 1.6
2014-Aug-11 01:33N 51°57' E 004°04'0 0.0
2014-Aug-11 00:33N 51°57' E 004°04'0 0.0
2014-Aug-10 23:33N 51°57' E 004°04'0 0.0
2014-Aug-10 22:33N 51°57' E 004°04'0 0.0
2014-Aug-10 21:33N 51°57' E 004°04'0 0.0
2014-Aug-10 20:30N 51°57' E 004°04'0 0.0
2014-Aug-10 19:33N 51°57' E 004°04'0 0.0
2014-Aug-10 18:33N 51°57' E 004°04'0 0.0
2014-Aug-10 17:33N 51°57' E 004°04'0 0.0
2014-Aug-10 16:33N 51°57' E 004°04'0 0.0
2014-Aug-10 15:33N 51°57' E 004°04'0 0.0
2014-Aug-10 14:33N 51°57' E 004°04'0 0.0
2014-Aug-10 13:33N 51°57' E 004°04'0 0.0
2014-Aug-10 12:33N 51°57' E 004°04'0 0.0
2014-Aug-10 11:33N 51°57' E 004°04'0 0.0
2014-Aug-10 10:33N 51°57' E 004°04'0 0.0
2014-Aug-10 09:33N 51°57' E 004°04'0 0.0
2014-Aug-10 08:33N 51°57' E 004°04'0 0.0
2014-Aug-10 07:30N 51°57' E 004°04'0 0.0
2014-Aug-10 06:33N 51°57' E 004°04'0 0.0
2014-Aug-10 05:27N 51°57' E 004°04'0 0.0
2014-Aug-10 04:33N 51°57' E 004°04'0 0.0
2014-Aug-10 03:33N 51°57' E 004°04'0 0.0
2014-Aug-10 02:33N 51°57' E 004°04'0 0.0
2014-Aug-10 01:33N 51°57' E 004°04'0 0.0
2014-Aug-10 00:33N 51°57' E 004°04'0 0.0
2014-Aug-09 23:33N 51°57' E 004°04'0 0.0
2014-Aug-09 22:33N 51°57' E 004°04'0 0.0
2014-Aug-09 21:30N 51°57' E 004°04'0 0.0
2014-Aug-09 20:33N 51°57' E 004°04'1 1.2
2014-Aug-09 19:33N 51°58' E 004°05'8 8.4
2014-Aug-09 18:33N 52°00' E 003°52'8 8.2
2014-Aug-09 17:33N 52°03' E 003°40'4 4.0
2014-Aug-09 16:33N 52°07' E 003°36'10 9.9
2014-Aug-09 15:33N 51°57' E 003°37'4413.0
2014-Aug-09 12:09N 51°41' E 002°30'1322.2
2014-Aug-09 11:33N 51°31' E 002°16'2120.9
2014-Aug-09 10:34N 51°12' E 002°01'2322.6
2014-Aug-09 09:34N 50°58' E 001°33'2521.4
2014-Aug-09 08:22N 50°36' E 001°12'1821.6
2014-Aug-09 07:33N 50°28' E 000°47'2322.6
2014-Aug-09 06:33N 50°23' E 000°13'2221.7
2014-Aug-09 05:33N 50°27' W 000°21'2221.6
2014-Aug-09 04:34N 50°35' W 000°52'1212.1
2014-Aug-09 03:34N 50°44' W 001°05'1111.2
2014-Aug-09 02:33N 50°51' W 001°20'6 5.8
2014-Aug-09 01:33N 50°54' W 001°27'1 0.7
2014-Aug-09 00:32N 50°54' W 001°28'0 0.0
2014-Aug-08 23:32N 50°54' W 001°28'0 0.0
2014-Aug-08 22:32N 50°54' W 001°28'0 0.0
2014-Aug-08 21:32N 50°54' W 001°28'0 0.0
2014-Aug-08 20:29N 50°54' W 001°28'0 0.0
2014-Aug-08 19:32N 50°54' W 001°28'0 0.0
2014-Aug-08 18:32N 50°54' W 001°28'0 0.0
2014-Aug-08 17:32N 50°54' W 001°28'0 0.0
2014-Aug-08 16:32N 50°54' W 001°28'  

Dump ship's entire track history